Time;durP1;ratioP1;P1;durP2;ratioP2;P2;SDS_P1;SDS_P2;PMS_P1;PMS_P2;Temp;Humidity;BMP_temperature;BMP_pressure;BME280_temperature;BME280_humidity;BME280_pressure;Samples;Min_cycle;Max_cycle;Signal;HPM_P1;HPM_P2
2024/01/26 00:02:01;;;;;;;0.77;0.77;;;11.80;99.90;;;;;;7367772;19;20261;-77
2024/01/26 00:04:27;;;;;;;0.50;0.50;;;11.80;99.90;;;;;;7369159;19;20194;-76
2024/01/26 00:06:53;;;;;;;0.30;0.30;;;11.90;99.90;;;;;;7367762;19;20158;-76
2024/01/26 00:09:19;;;;;;;0.52;0.50;;;11.90;99.90;;;;;;7391114;19;20139;-76
2024/01/26 00:11:44;;;;;;;0.32;0.32;;;11.90;99.90;;;;;;7369260;19;20192;-77
2024/01/26 00:14:10;;;;;;;0.73;0.50;;;11.80;99.90;;;;;;7369966;19;20189;-76
2024/01/26 00:16:37;;;;;;;1.23;0.80;;;11.80;99.90;;;;;;7368554;19;20190;-76
2024/01/26 00:19:03;;;;;;;0.40;0.40;;;11.80;99.90;;;;;;7369911;19;20200;-75
2024/01/26 00:21:29;;;;;;;1.63;0.40;;;11.80;99.90;;;;;;7392699;19;20157;-76
2024/01/26 00:23:55;;;;;;;0.75;0.63;;;11.80;99.90;;;;;;7368361;19;20253;-77
2024/01/26 00:26:20;;;;;;;0.70;0.70;;;11.80;99.90;;;;;;7370621;19;20189;-76
2024/01/26 00:28:46;;;;;;;0.50;0.50;;;11.80;99.90;;;;;;7367486;19;20639;-77
2024/01/26 00:31:18;;;;;;;0.60;0.50;;;11.70;99.90;;;;;;7368927;19;20199;-77
2024/01/26 00:33:45;;;;;;;0.60;0.47;;;11.70;99.90;;;;;;7368665;19;20607;-76
2024/01/26 00:36:11;;;;;;;0.57;0.50;;;11.80;99.90;;;;;;7389914;19;20638;-77
2024/01/26 00:38:37;;;;;;;0.63;0.40;;;11.80;99.90;;;;;;7369787;19;20197;-77
2024/01/26 00:41:03;;;;;;;0.68;0.55;;;11.70;99.90;;;;;;7367029;19;20198;-76
2024/01/26 00:43:28;;;;;;;0.40;0.40;;;11.80;99.90;;;;;;7368896;19;20211;-77
2024/01/26 00:45:54;;;;;;;0.30;0.30;;;11.80;99.90;;;;;;7366762;19;20198;-77
2024/01/26 00:48:20;;;;;;;1.40;0.68;;;11.80;99.90;;;;;;7391305;19;20147;-77
2024/01/26 00:50:46;;;;;;;0.40;0.40;;;11.80;99.90;;;;;;7366851;19;20190;-77
2024/01/26 00:53:12;;;;;;;0.20;0.20;;;11.80;99.90;;;;;;7366891;19;20194;-77
2024/01/26 00:55:37;;;;;;;0.50;0.50;;;11.80;99.90;;;;;;7367471;19;20530;-76
2024/01/26 00:58:03;;;;;;;0.50;0.30;;;11.80;99.90;;;;;;7367070;19;20296;-76
2024/01/26 01:00:29;;;;;;;0.43;0.43;;;11.80;99.90;;;;;;7388429;19;20579;-77
2024/01/26 01:02:55;;;;;;;0.35;0.30;;;11.80;99.90;;;;;;7368823;19;20193;-77
2024/01/26 01:05:21;;;;;;;0.80;0.55;;;11.80;99.90;;;;;;7365180;19;20591;-77
2024/01/26 01:07:47;;;;;;;0.30;0.30;;;11.80;99.90;;;;;;7369243;19;20808;-77
2024/01/26 01:10:14;;;;;;;0.35;0.35;;;11.70;99.90;;;;;;7368083;19;20218;-76
2024/01/26 01:12:42;;;;;;;0.63;0.50;;;11.90;99.90;;;;;;7367755;19;20547;-77
2024/01/26 01:15:12;;;;;;;0.20;0.20;;;11.70;99.90;;;;;;7389503;19;20151;-76
2024/01/26 01:17:43;;;;;;;0.47;0.47;;;11.80;99.90;;;;;;7365533;19;20205;-76
2024/01/26 01:20:10;;;;;;;0.32;0.32;;;11.70;99.90;;;;;;7367826;19;20214;-77
2024/01/26 01:22:40;;;;;;;0.35;0.30;;;11.70;99.90;;;;;;7362332;19;20186;-77
2024/01/26 01:25:07;;;;;;;0.60;0.60;;;11.80;99.90;;;;;;7366097;19;20200;-77
2024/01/26 01:27:35;;;;;;;0.35;0.35;;;11.70;99.90;;;;;;7388610;19;20142;-77
2024/01/26 01:30:06;;;;;;;2.25;0.40;;;11.70;99.90;;;;;;7367529;19;20194;-76
2024/01/26 01:32:31;;;;;;;0.40;0.40;;;11.70;99.90;;;;;;7362408;19;20190;-76
2024/01/26 01:34:57;;;;;;;0.60;0.60;;;11.60;99.90;;;;;;7366508;19;20194;-76
2024/01/26 01:37:23;;;;;;;0.40;0.40;;;11.70;99.90;;;;;;7368748;19;20194;-75
2024/01/26 01:39:49;;;;;;;0.60;0.52;;;11.50;99.90;;;;;;7364761;19;20134;-76
2024/01/26 01:42:15;;;;;;;0.20;0.20;;;11.40;99.90;;;;;;7391072;19;20142;-75
2024/01/26 01:44:45;;;;;;;0.30;0.30;;;11.50;99.90;;;;;;7362425;19;20235;-76
2024/01/26 01:47:12;;;;;;;0.30;0.30;;;11.50;99.90;;;;;;7367675;19;20189;-76
2024/01/26 01:49:39;;;;;;;0.43;0.40;;;11.60;99.90;;;;;;7363727;19;20663;-76
2024/01/26 01:52:08;;;;;;;0.50;0.47;;;11.60;99.90;;;;;;7364538;19;20196;-76
2024/01/26 01:54:34;;;;;;;0.38;0.38;;;11.60;99.90;;;;;;7383601;19;20126;-77
2024/01/26 01:57:04;;;;;;;0.40;0.40;;;11.60;99.90;;;;;;7383634;19;20169;-76
2024/01/26 01:59:31;;;;;;;0.30;0.30;;;11.50;99.90;;;;;;7363597;19;20186;-76
2024/01/26 02:01:57;;;;;;;0.98;0.60;;;11.50;99.90;;;;;;7366576;19;20189;-76
2024/01/26 02:04:22;;;;;;;0.32;0.32;;;11.50;99.90;;;;;;7363888;19;20193;-76
2024/01/26 02:06:58;;;;;;;0.40;0.40;;;11.60;99.90;;;;;;7364733;19;20146;-75
2024/01/26 02:09:24;;;;;;;0.30;0.30;;;11.70;99.90;;;;;;7388746;19;20568;-76
2024/01/26 02:11:51;;;;;;;0.20;0.20;;;11.60;99.90;;;;;;7365824;19;20182;-76
2024/01/26 02:14:17;;;;;;;0.17;0.17;;;11.70;99.90;;;;;;7366138;19;20182;-77
2024/01/26 02:16:58;;;;;;;0.30;0.30;;;11.70;99.90;;;;;;7366593;19;20189;-76
2024/01/26 02:19:25;;;;;;;0.30;0.30;;;11.70;99.90;;;;;;7364127;19;20278;-76
2024/01/26 02:21:51;;;;;;;0.30;0.30;;;11.80;99.90;;;;;;7364328;19;20154;-76
2024/01/26 02:24:17;;;;;;;0.40;0.40;;;11.70;99.90;;;;;;7387205;19;20175;-76
2024/01/26 02:26:43;;;;;;;0.30;0.30;;;11.70;99.90;;;;;;7364313;19;20182;-76
2024/01/26 02:29:09;;;;;;;0.20;0.20;;;11.60;99.90;;;;;;7364946;19;20197;-76
2024/01/26 02:31:35;;;;;;;0.33;0.33;;;11.70;99.90;;;;;;7363820;19;20911;-76
2024/01/26 02:34:01;;;;;;;0.53;0.40;;;11.70;99.90;;;;;;7369271;19;20193;-76
2024/01/26 02:36:31;;;;;;;0.20;0.20;;;11.70;99.90;;;;;;7395314;19;20138;-76
2024/01/26 02:38:56;;;;;;;0.28;0.28;;;11.70;99.90;;;;;;7372758;19;20541;-76
2024/01/26 02:41:22;;;;;;;0.20;0.20;;;11.80;99.90;;;;;;7371870;19;20186;-76
2024/01/26 02:43:48;;;;;;;0.17;0.17;;;11.80;99.90;;;;;;7369887;19;20189;-76
2024/01/26 02:46:13;;;;;;;0.20;0.20;;;11.80;99.90;;;;;;7370726;19;20625;-75
2024/01/26 02:48:39;;;;;;;0.20;0.20;;;11.80;99.90;;;;;;7372459;19;20143;-76
2024/01/26 02:51:05;;;;;;;0.30;0.30;;;11.70;99.90;;;;;;7393488;19;20165;-75
2024/01/26 02:53:31;;;;;;;0.68;0.30;;;11.70;99.90;;;;;;7371399;19;20186;-75
2024/01/26 02:55:59;;;;;;;0.27;0.27;;;11.70;99.90;;;;;;7371712;19;20253;-75
2024/01/26 02:58:25;;;;;;;0.20;0.20;;;11.80;99.90;;;;;;7371405;19;20190;-75
2024/01/26 03:00:50;;;;;;;0.30;0.30;;;11.80;99.90;;;;;;7370719;19;20608;-76
2024/01/26 03:03:16;;;;;;;0.20;0.20;;;11.80;99.90;;;;;;7394792;19;20142;-76
2024/01/26 03:05:42;;;;;;;0.30;0.30;;;11.80;99.90;;;;;;7368815;19;20198;-77
2024/01/26 03:08:07;;;;;;;0.30;0.30;;;11.80;99.90;;;;;;7369761;19;20193;-76
2024/01/26 03:10:33;;;;;;;0.20;0.20;;;11.70;99.90;;;;;;7370920;19;20663;-76
2024/01/26 03:12:59;;;;;;;0.30;0.30;;;11.70;99.90;;;;;;7370370;19;20190;-76
2024/01/26 03:15:25;;;;;;;0.20;0.20;;;11.60;99.90;;;;;;7393410;19;20156;-76
2024/01/26 03:17:50;;;;;;;0.30;0.30;;;11.60;99.90;;;;;;7368459;19;21554;-77
2024/01/26 03:20:17;;;;;;;0.27;0.27;;;11.60;99.90;;;;;;7370303;19;20190;-76
2024/01/26 03:22:47;;;;;;;0.25;0.25;;;11.60;99.90;;;;;;7370762;19;20270;-77
2024/01/26 03:25:13;;;;;;;0.30;0.30;;;11.70;99.90;;;;;;7370701;19;20291;-77
2024/01/26 03:27:39;;;;;;;0.30;0.30;;;11.70;99.90;;;;;;7371141;19;20146;-77
2024/01/26 03:30:05;;;;;;;0.30;0.30;;;11.70;99.90;;;;;;7393726;19;20186;-76
2024/01/26 03:32:31;;;;;;;0.30;0.30;;;11.70;99.90;;;;;;7369620;19;20190;-76
2024/01/26 03:34:57;;;;;;;0.40;0.40;;;11.70;99.90;;;;;;7370532;19;20200;-76
2024/01/26 03:37:22;;;;;;;0.40;0.40;;;11.70;99.90;;;;;;7369178;19;20185;-76
2024/01/26 03:39:48;;;;;;;0.70;0.60;;;11.70;99.90;;;;;;7369602;19;20146;-76
2024/01/26 03:42:14;;;;;;;0.38;0.30;;;11.70;99.90;;;;;;7393759;19;20423;-76
2024/01/26 03:44:43;;;;;;;0.30;0.30;;;11.60;99.90;;;;;;7366631;19;20198;-77
2024/01/26 03:47:09;;;;;;;0.20;0.20;;;11.60;99.90;;;;;;7368494;19;20273;-77
2024/01/26 03:49:35;;;;;;;0.20;0.20;;;11.50;99.90;;;;;;7369930;19;20221;-76
2024/01/26 03:52:03;;;;;;;0.47;0.30;;;11.60;99.90;;;;;;7368382;19;20325;-76
2024/01/26 03:54:28;;;;;;;0.90;0.30;;;11.70;99.90;;;;;;7385948;19;20134;-77
2024/01/26 03:56:54;;;;;;;0.45;0.45;;;11.60;99.90;;;;;;7372128;19;20214;-75
2024/01/26 03:59:19;;;;;;;0.23;0.23;;;11.50;99.90;;;;;;7368318;19;20257;-76
2024/01/26 04:01:45;;;;;;;0.20;0.20;;;11.50;99.90;;;;;;7369693;19;20648;-76
2024/01/26 04:04:11;;;;;;;0.30;0.30;;;11.50;99.90;;;;;;7369288;19;20652;-76
2024/01/26 04:06:41;;;;;;;0.30;0.30;;;11.60;99.90;;;;;;7368308;19;20154;-77
2024/01/26 04:09:10;;;;;;;0.40;0.40;;;11.60;99.90;;;;;;7390268;19;20162;-76
2024/01/26 04:11:36;;;;;;;0.30;0.30;;;11.70;99.90;;;;;;7368269;19;20252;-76
2024/01/26 04:14:01;;;;;;;0.47;0.47;;;11.60;99.90;;;;;;7365592;19;20834;-77
2024/01/26 04:16:27;;;;;;;0.50;0.50;;;11.60;99.90;;;;;;7370208;19;20190;-76
2024/01/26 04:18:53;;;;;;;0.30;0.30;;;11.60;99.90;;;;;;7369311;19;20138;-76
2024/01/26 04:21:18;;;;;;;0.30;0.30;;;11.60;99.90;;;;;;7392310;19;20138;-76
2024/01/26 04:23:44;;;;;;;0.27;0.27;;;11.60;99.90;;;;;;7369015;19;20194;-75
2024/01/26 04:26:10;;;;;;;0.28;0.28;;;11.40;99.90;;;;;;7368364;19;20276;-76
2024/01/26 04:28:35;;;;;;;0.30;0.30;;;11.50;99.90;;;;;;7368598;19;20643;-75
2024/01/26 04:31:04;;;;;;;1.40;0.30;;;11.60;99.90;;;;;;7368106;19;20197;-75
2024/01/26 04:33:30;;;;;;;0.30;0.30;;;11.60;99.90;;;;;;7393279;19;20146;-76
2024/01/26 04:35:55;;;;;;;6.70;0.50;;;11.60;99.90;;;;;;7367007;19;20632;-77
2024/01/26 04:38:21;;;;;;;0.30;0.30;;;11.60;99.90;;;;;;7368856;19;20313;-77
2024/01/26 04:40:47;;;;;;;0.40;0.38;;;11.60;99.90;;;;;;7365481;19;20210;-77
2024/01/26 04:43:12;;;;;;;0.28;0.28;;;11.50;99.90;;;;;;7368244;19;20203;-76
2024/01/26 04:45:38;;;;;;;0.25;0.25;;;11.50;99.90;;;;;;7366156;19;20146;-76
2024/01/26 04:48:04;;;;;;;0.30;0.30;;;11.60;99.90;;;;;;7391149;19;20149;-76
2024/01/26 04:50:30;;;;;;;0.30;0.30;;;11.50;99.90;;;;;;7366658;19;20190;-76
2024/01/26 04:52:56;;;;;;;0.40;0.40;;;11.60;99.90;;;;;;7369279;19;20194;-75
2024/01/26 04:55:22;;;;;;;0.32;0.32;;;11.60;99.90;;;;;;7366767;19;20206;-77
2024/01/26 04:57:48;;;;;;;0.77;0.40;;;11.60;99.90;;;;;;7370466;19;20157;-76
2024/01/26 05:00:15;;;;;;;0.30;0.30;;;11.60;99.90;;;;;;7388830;19;20135;-77
2024/01/26 05:02:41;;;;;;;0.30;0.30;;;11.60;99.90;;;;;;7367666;19;20210;-77
2024/01/26 05:05:06;;;;;;;0.27;0.27;;;11.60;99.90;;;;;;7366361;19;20198;-77
2024/01/26 05:07:32;;;;;;;0.50;0.50;;;11.60;99.90;;;;;;7367437;19;20661;-76
2024/01/26 05:09:58;;;;;;;0.37;0.37;;;11.50;99.90;;;;;;7368227;19;20232;-77
2024/01/26 05:12:23;;;;;;;0.40;0.40;;;11.50;99.90;;;;;;7389228;19;20515;-77
2024/01/26 05:14:49;;;;;;;0.32;0.32;;;11.60;99.90;;;;;;7367901;19;20190;-77
2024/01/26 05:17:14;;;;;;;0.50;0.50;;;11.60;99.90;;;;;;7365451;19;20197;-77
2024/01/26 05:19:40;;;;;;;0.30;0.30;;;11.60;99.90;;;;;;7364721;19;20596;-78
2024/01/26 05:22:06;;;;;;;0.80;0.50;;;11.60;99.90;;;;;;7367667;19;20193;-76
2024/01/26 05:24:31;;;;;;;0.50;0.30;;;11.60;99.90;;;;;;7388101;19;20126;-76
2024/01/26 05:26:57;;;;;;;0.40;0.40;;;11.70;99.90;;;;;;7368677;19;20228;-76
2024/01/26 05:29:22;;;;;;;0.50;0.40;;;11.70;99.90;;;;;;7365714;19;20190;-76
2024/01/26 05:31:48;;;;;;;0.40;0.40;;;11.70;99.90;;;;;;7368911;19;20186;-76
2024/01/26 05:34:14;;;;;;;0.40;0.40;;;11.40;99.90;;;;;;7366350;19;20181;-76
2024/01/26 05:36:41;;;;;;;0.43;0.40;;;11.50;99.90;;;;;;7368089;19;20142;-77
2024/01/26 05:39:08;;;;;;;0.40;0.40;;;11.60;99.90;;;;;;7386897;19;20150;-78
2024/01/26 05:41:34;;;;;;;0.50;0.23;;;11.70;99.90;;;;;;7366033;19;20222;-77
2024/01/26 05:43:59;;;;;;;0.20;0.20;;;11.40;99.90;;;;;;7363372;19;20194;-77
2024/01/26 05:46:25;;;;;;;0.50;0.50;;;11.30;99.90;;;;;;7366043;19;20189;-76
2024/01/26 05:48:50;;;;;;;2.03;0.50;;;11.30;99.90;;;;;;7366654;19;20478;-77
2024/01/26 05:51:16;;;;;;;0.43;0.43;;;11.00;99.90;;;;;;7387240;19;20206;-78
2024/01/26 05:53:42;;;;;;;0.40;0.40;;;11.20;99.90;;;;;;7364318;19;20206;-77
2024/01/26 05:56:07;;;;;;;0.25;0.25;;;11.30;99.90;;;;;;7365299;19;20189;-77
2024/01/26 05:58:33;;;;;;;0.20;0.20;;;11.40;99.90;;;;;;7364002;19;20190;-77
2024/01/26 06:00:58;;;;;;;0.65;0.60;;;11.40;99.90;;;;;;7366081;19;20189;-77
2024/01/26 06:03:24;;;;;;;0.23;0.23;;;11.50;99.90;;;;;;7387782;19;20765;-77
2024/01/26 06:05:49;;;;;;;2.53;0.40;;;11.40;99.90;;;;;;7363922;19;20281;-78
2024/01/26 06:08:15;;;;;;;0.43;0.40;;;11.60;99.90;;;;;;7363644;19;20200;-79
2024/01/26 06:10:41;;;;;;;0.50;0.50;;;11.50;99.90;;;;;;7367036;19;20181;-79
2024/01/26 06:13:07;;;;;;;0.27;0.27;;;11.40;99.90;;;;;;7368648;19;20194;-78
2024/01/26 06:15:35;;;;;;;0.40;0.40;;;11.40;99.90;;;;;;7390015;19;20150;-78
2024/01/26 06:18:01;;;;;;;0.30;0.30;;;11.40;99.90;;;;;;7367659;19;20650;-77
2024/01/26 06:20:31;;;;;;;0.73;0.40;;;11.40;99.90;;;;;;7364222;19;20190;-77
2024/01/26 06:22:59;;;;;;;0.40;0.40;;;11.30;99.90;;;;;;7364929;19;20214;-78
2024/01/26 06:25:25;;;;;;;1.20;0.43;;;11.30;99.90;;;;;;7363404;19;20601;-77
2024/01/26 06:27:51;;;;;;;0.30;0.30;;;11.30;99.90;;;;;;7366430;19;20154;-79
2024/01/26 06:30:17;;;;;;;0.30;0.30;;;11.30;99.90;;;;;;7387337;19;20229;-78
2024/01/26 06:32:43;;;;;;;0.35;0.35;;;11.30;99.90;;;;;;7367478;19;20190;-77
2024/01/26 06:35:10;;;;;;;0.50;0.50;;;11.40;99.90;;;;;;7364727;19;20210;-78
2024/01/26 06:37:36;;;;;;;0.40;0.40;;;11.40;99.90;;;;;;7367548;19;20194;-77
2024/01/26 06:40:01;;;;;;;0.87;0.37;;;11.30;99.90;;;;;;7366858;19;20198;-78
2024/01/26 06:42:32;;;;;;;0.87;0.83;;;11.40;99.90;;;;;;7387215;19;20147;-78
2024/01/26 06:44:57;;;;;;;0.33;0.33;;;11.50;99.90;;;;;;7366886;19;20207;-77
2024/01/26 06:47:23;;;;;;;0.30;0.30;;;11.50;99.90;;;;;;7364184;19;20190;-77
2024/01/26 06:49:50;;;;;;;0.33;0.33;;;11.30;99.90;;;;;;7365878;19;20189;-77
2024/01/26 06:52:16;;;;;;;0.37;0.37;;;11.30;99.90;;;;;;7364696;19;20194;-77
2024/01/26 06:54:41;;;;;;;0.37;0.37;;;11.30;99.90;;;;;;7365446;19;20183;-78
2024/01/26 06:57:07;;;;;;;0.40;0.40;;;11.40;99.90;;;;;;7387220;19;20154;-78
2024/01/26 06:59:37;;;;;;;2.50;0.50;;;11.40;99.90;;;;;;7363518;19;20266;-77
2024/01/26 07:02:03;;;;;;;0.37;0.37;;;11.50;99.90;;;;;;7362454;19;20190;-78
2024/01/26 07:04:29;;;;;;;0.40;0.40;;;11.40;99.90;;;;;;7364112;19;20194;-77
2024/01/26 07:06:54;;;;;;;0.30;0.30;;;11.30;99.90;;;;;;7364186;19;20207;-78
2024/01/26 07:09:20;;;;;;;1.10;0.80;;;11.40;99.90;;;;;;7387867;19;20484;-78
2024/01/26 07:11:46;;;;;;;0.70;0.70;;;11.50;99.90;;;;;;7362835;19;20636;-78
2024/01/26 07:14:11;;;;;;;0.40;0.40;;;11.70;99.90;;;;;;7363619;19;20202;-78
2024/01/26 07:16:37;;;;;;;0.50;0.50;;;11.60;99.90;;;;;;7364641;19;20202;-78
2024/01/26 07:19:03;;;;;;;0.93;0.50;;;11.70;99.90;;;;;;7366325;19;20189;-77
2024/01/26 07:21:28;;;;;;;0.30;0.30;;;11.60;99.90;;;;;;7393599;19;20222;-78
2024/01/26 07:23:54;;;;;;;0.40;0.40;;;11.70;99.90;;;;;;7371753;19;20185;-78
2024/01/26 07:26:20;;;;;;;0.30;0.30;;;11.60;99.90;;;;;;7367991;19;20765;-79
2024/01/26 07:28:47;;;;;;;4.60;2.20;;;11.60;99.90;;;;;;7374447;19;20186;-79
2024/01/26 07:31:14;;;;;;;0.30;0.30;;;11.50;99.90;;;;;;7371288;19;20214;-79
2024/01/26 07:33:39;;;;;;;0.43;0.37;;;11.60;99.90;;;;;;7373214;19;20147;-79
2024/01/26 07:36:05;;;;;;;0.67;0.50;;;11.60;99.90;;;;;;7393463;19;20599;-79
2024/01/26 07:38:31;;;;;;;0.40;0.40;;;11.60;99.90;;;;;;7370929;19;20198;-79
2024/01/26 07:40:57;;;;;;;0.30;0.30;;;11.70;99.90;;;;;;7370105;19;20184;-79
2024/01/26 07:43:24;;;;;;;0.35;0.35;;;11.60;99.90;;;;;;7372600;19;20202;-79
2024/01/26 07:45:49;;;;;;;0.40;0.40;;;11.50;99.90;;;;;;7370527;19;20186;-77
2024/01/26 07:48:15;;;;;;;0.52;0.45;;;11.60;99.90;;;;;;7395913;19;20130;-78
2024/01/26 07:50:41;;;;;;;1.25;1.00;;;11.60;99.90;;;;;;7376132;19;20190;-77
2024/01/26 07:53:11;;;;;;;0.30;0.30;;;11.60;99.90;;;;;;7375888;19;20196;-76
2024/01/26 07:55:37;;;;;;;0.83;0.83;;;11.70;99.90;;;;;;7373183;19;20178;-76
2024/01/26 07:58:06;;;;;;;0.67;0.67;;;11.80;99.90;;;;;;7369549;19;20572;-77
2024/01/26 08:00:32;;;;;;;0.40;0.40;;;11.90;99.90;;;;;;7390828;19;20542;-76
2024/01/26 08:02:58;;;;;;;0.80;0.80;;;11.90;99.90;;;;;;7370427;19;20190;-74
2024/01/26 08:05:24;;;;;;;0.30;0.30;;;12.00;99.90;;;;;;7369977;19;20273;-77
2024/01/26 08:07:49;;;;;;;0.63;0.47;;;12.00;99.90;;;;;;7367772;19;20818;-77
2024/01/26 08:10:15;;;;;;;0.40;0.40;;;12.10;99.90;;;;;;7370422;19;21162;-76
2024/01/26 08:12:41;;;;;;;0.50;0.50;;;12.20;99.90;;;;;;7370749;19;20138;-77
2024/01/26 08:15:07;;;;;;;0.45;0.45;;;12.20;99.90;;;;;;7391108;19;20130;-77
2024/01/26 08:17:33;;;;;;;0.82;0.45;;;12.20;99.90;;;;;;7369586;19;20655;-77
2024/01/26 08:20:01;;;;;;;0.40;0.40;;;12.10;99.90;;;;;;7368964;19;20664;-78
2024/01/26 08:22:27;;;;;;;0.60;0.60;;;12.20;99.90;;;;;;7372343;19;20271;-78
2024/01/26 08:24:53;;;;;;;0.40;0.40;;;12.30;99.90;;;;;;7371221;19;20161;-77
2024/01/26 08:27:18;;;;;;;2.10;1.10;;;12.30;99.90;;;;;;7390964;19;20154;-76
2024/01/26 08:29:44;;;;;;;0.45;0.30;;;12.30;99.90;;;;;;7369026;19;20231;-78
2024/01/26 08:32:09;;;;;;;1.45;0.63;;;12.40;99.90;;;;;;7365991;19;20214;-78
2024/01/26 08:34:36;;;;;;;0.40;0.40;;;12.20;99.90;;;;;;7368710;19;20197;-77
2024/01/26 08:37:05;;;;;;;2.10;0.60;;;12.30;99.90;;;;;;7370560;19;20186;-77
2024/01/26 08:39:31;;;;;;;0.20;0.20;;;12.10;99.90;;;;;;7389936;19;20142;-78
2024/01/26 08:41:57;;;;;;;0.20;0.20;;;12.20;99.90;;;;;;7369617;19;20284;-78
2024/01/26 08:44:23;;;;;;;0.40;0.40;;;12.20;99.90;;;;;;7366245;19;20198;-75
2024/01/26 08:46:49;;;;;;;0.55;0.50;;;12.20;99.90;;;;;;7365985;19;20193;-77
2024/01/26 08:49:15;;;;;;;0.30;0.30;;;12.50;99.90;;;;;;7367546;19;20193;-77
2024/01/26 08:51:41;;;;;;;0.50;0.40;;;12.30;99.90;;;;;;7366819;19;20165;-77
2024/01/26 08:54:07;;;;;;;0.63;0.30;;;12.30;99.90;;;;;;7391201;19;20150;-73
2024/01/26 08:56:40;;;;;;;0.40;0.40;;;12.40;99.90;;;;;;7366388;19;20214;-77
2024/01/26 08:59:07;;;;;;;0.40;0.40;;;12.30;99.90;;;;;;7366019;19;21019;-77
2024/01/26 09:01:34;;;;;;;0.45;0.22;;;12.30;99.90;;;;;;7363391;19;20190;-79
2024/01/26 09:04:00;;;;;;;0.52;0.50;;;12.40;99.90;;;;;;7363591;19;20683;-78
2024/01/26 09:06:26;;;;;;;0.25;0.25;;;12.20;99.90;;;;;;7387461;19;20636;-77
2024/01/26 09:08:56;;;;;;;1.00;0.82;;;12.30;99.90;;;;;;7366978;19;20290;-79
2024/01/26 09:11:22;;;;;;;0.40;0.40;;;12.40;99.90;;;;;;7367094;19;20691;-76
2024/01/26 09:13:47;;;;;;;0.43;0.43;;;12.40;99.90;;;;;;7365428;19;20193;-78
2024/01/26 09:16:13;;;;;;;0.93;0.73;;;12.30;99.90;;;;;;7366942;19;20211;-78
2024/01/26 09:18:39;;;;;;;0.30;0.30;;;12.40;99.90;;;;;;7367588;19;20636;-78
2024/01/26 09:21:05;;;;;;;0.50;0.50;;;12.40;99.90;;;;;;7388954;19;20222;-76
2024/01/26 09:23:31;;;;;;;0.80;0.45;;;12.40;99.90;;;;;;7364824;19;20584;-78
2024/01/26 09:25:58;;;;;;;0.40;0.30;;;12.50;99.90;;;;;;7364290;19;20186;-77
2024/01/26 09:28:24;;;;;;;0.35;0.35;;;12.50;99.90;;;;;;7365526;19;20533;-77
2024/01/26 09:30:50;;;;;;;0.60;0.60;;;12.60;99.90;;;;;;7367685;19;20194;-77
2024/01/26 09:33:15;;;;;;;0.47;0.40;;;12.70;99.90;;;;;;7388724;19;20149;-77
2024/01/26 09:35:41;;;;;;;0.63;0.63;;;12.80;99.90;;;;;;7367322;19;20236;-77
2024/01/26 09:38:06;;;;;;;0.43;0.32;;;12.70;99.90;;;;;;7364939;19;20253;-77
2024/01/26 09:40:32;;;;;;;0.38;0.38;;;12.70;99.90;;;;;;7365010;19;20186;-77
2024/01/26 09:42:58;;;;;;;0.35;0.35;;;12.50;99.90;;;;;;7364602;19;20544;-78
2024/01/26 09:45:29;;;;;;;1.00;0.60;;;12.50;99.90;;;;;;7392608;19;20597;-76
2024/01/26 09:47:56;;;;;;;0.70;0.70;;;12.50;99.90;;;;;;7368610;19;20181;-77
2024/01/26 09:50:22;;;;;;;0.52;0.52;;;12.40;99.90;;;;;;7365214;19;20562;-77
2024/01/26 09:52:49;;;;;;;0.50;0.50;;;12.30;99.90;;;;;;7365060;19;20186;-77
2024/01/26 09:55:15;;;;;;;0.60;0.60;;;12.30;99.90;;;;;;7366742;19;20652;-77
2024/01/26 09:57:43;;;;;;;0.95;0.85;;;12.30;99.90;;;;;;7364797;19;20156;-77
2024/01/26 10:00:10;;;;;;;0.65;0.63;;;12.30;99.90;;;;;;7388532;19;20158;-77
2024/01/26 10:02:37;;;;;;;0.55;0.55;;;12.50;99.90;;;;;;7365243;19;20700;-76
2024/01/26 10:05:03;;;;;;;0.65;0.65;;;12.50;99.90;;;;;;7363710;19;20193;-77
2024/01/26 10:07:29;;;;;;;0.50;0.40;;;12.50;99.90;;;;;;7366359;19;20186;-78
2024/01/26 10:09:55;;;;;;;0.63;0.55;;;12.40;99.90;;;;;;7367151;19;20199;-77
2024/01/26 10:12:21;;;;;;;0.40;0.40;;;12.50;99.90;;;;;;7388752;19;20135;-78
2024/01/26 10:14:49;;;;;;;0.98;0.88;;;12.60;99.90;;;;;;7367491;19;20262;-78
2024/01/26 10:17:18;;;;;;;0.47;0.47;;;12.70;99.90;;;;;;7363083;19;20190;-78
2024/01/26 10:19:43;;;;;;;1.23;0.57;;;12.70;99.90;;;;;;7362414;19;20219;-76
2024/01/26 10:22:12;;;;;;;0.98;0.60;;;12.70;99.90;;;;;;7364580;19;20489;-78
2024/01/26 10:24:37;;;;;;;1.30;0.80;;;12.70;99.90;;;;;;7363648;19;20135;-77
2024/01/26 10:27:03;;;;;;;0.73;0.52;;;12.70;99.90;;;;;;7387539;19;20589;-78
2024/01/26 10:29:29;;;;;;;0.60;0.60;;;12.70;99.90;;;;;;7363039;19;20193;-78
2024/01/26 10:31:55;;;;;;;0.55;0.55;;;12.70;99.90;;;;;;7366183;19;20209;-77
2024/01/26 10:34:21;;;;;;;0.40;0.40;;;12.80;99.90;;;;;;7362829;19;20258;-77
2024/01/26 10:36:48;;;;;;;0.40;0.40;;;12.80;99.90;;;;;;7367182;19;20146;-77
2024/01/26 10:39:22;;;;;;;0.60;0.52;;;12.70;99.90;;;;;;7384537;19;20210;-78
2024/01/26 10:41:49;;;;;;;0.68;0.50;;;12.90;99.90;;;;;;7364399;19;20178;-78
2024/01/26 10:44:16;;;;;;;0.85;0.50;;;12.90;99.90;;;;;;7363855;19;20189;-77
2024/01/26 10:46:43;;;;;;;0.35;0.35;;;12.80;99.90;;;;;;7360682;19;20206;-77
2024/01/26 10:49:10;;;;;;;0.50;0.50;;;12.80;99.90;;;;;;7363627;19;20178;-76
2024/01/26 10:51:42;;;;;;;0.40;0.30;;;12.70;99.90;;;;;;7367791;19;20146;-77
2024/01/26 10:54:12;;;;;;;0.82;0.57;;;12.70;99.90;;;;;;7386876;19;20146;-76
2024/01/26 10:56:39;;;;;;;0.57;0.50;;;12.80;99.90;;;;;;7370116;19;20186;-77
2024/01/26 10:59:07;;;;;;;0.47;0.47;;;12.80;99.90;;;;;;7369094;19;20647;-76
2024/01/26 11:01:35;;;;;;;0.50;0.50;;;12.80;99.90;;;;;;7371639;19;20186;-77
2024/01/26 11:04:01;;;;;;;0.30;0.30;;;12.80;99.90;;;;;;7372192;19;20266;-77
2024/01/26 11:06:28;;;;;;;0.73;0.73;;;12.80;99.90;;;;;;7391319;19;20158;-77
2024/01/26 11:09:03;;;;;;;1.02;0.95;;;12.90;99.90;;;;;;7370997;19;20207;-77
2024/01/26 11:11:32;;;;;;;0.30;0.30;;;12.90;99.90;;;;;;7370464;19;20606;-77
2024/01/26 11:14:02;;;;;;;0.60;0.60;;;13.00;99.90;;;;;;7368889;19;20186;-76
2024/01/26 11:16:34;;;;;;;0.52;0.50;;;13.00;99.90;;;;;;7371212;19;20678;-77
2024/01/26 11:19:01;;;;;;;1.05;0.70;;;13.00;99.90;;;;;;7369863;19;20186;-76
2024/01/26 11:21:42;;;;;;;0.43;0.40;;;13.10;99.90;;;;;;7391950;19;20163;-78
2024/01/26 11:24:19;;;;;;;0.68;0.63;;;13.20;99.90;;;;;;7372158;19;20190;-77
2024/01/26 11:26:59;;;;;;;0.40;0.40;;;13.10;99.90;;;;;;7368853;19;20186;-78
2024/01/26 11:29:35;;;;;;;0.50;0.50;;;12.90;99.90;;;;;;7369865;19;20221;-76
2024/01/26 11:32:13;;;;;;;0.40;0.40;;;12.90;99.90;;;;;;7371421;19;20235;-77
2024/01/26 11:34:40;;;;;;;0.68;0.60;;;13.00;99.90;;;;;;7371425;19;20253;-78
2024/01/26 11:37:13;;;;;;;0.50;0.50;;;13.00;99.90;;;;;;7372428;19;20200;-77
2024/01/26 11:39:40;;;;;;;1.17;0.60;;;13.00;99.90;;;;;;7368373;19;20135;-78
2024/01/26 11:42:11;;;;;;;0.52;0.52;;;13.10;99.90;;;;;;7394605;19;20596;-77
2024/01/26 11:44:43;;;;;;;0.50;0.40;;;12.90;99.90;;;;;;7370055;19;20190;-78
2024/01/26 11:47:09;;;;;;;0.40;0.40;;;13.00;99.90;;;;;;7367686;19;20201;-77
2024/01/26 11:49:39;;;;;;;0.57;0.57;;;13.00;99.90;;;;;;7370202;19;20214;-78
2024/01/26 11:52:05;;;;;;;0.45;0.40;;;13.20;99.90;;;;;;7368176;19;21004;-77
2024/01/26 11:54:31;;;;;;;0.40;0.40;;;12.90;99.90;;;;;;7392943;19;20635;-78
2024/01/26 11:56:58;;;;;;;0.50;0.40;;;12.90;99.90;;;;;;7369093;19;20192;-76
2024/01/26 11:59:23;;;;;;;0.30;0.30;;;13.10;99.90;;;;;;7368026;19;20548;-77
2024/01/26 12:01:49;;;;;;;0.50;0.47;;;12.90;99.90;;;;;;7367558;19;20182;-78
2024/01/26 12:04:16;;;;;;;0.60;0.45;;;12.90;99.90;;;;;;7369704;19;20202;-77
2024/01/26 12:06:42;;;;;;;0.25;0.22;;;12.80;99.90;;;;;;7364357;19;20160;-77
2024/01/26 12:09:09;;;;;;;0.38;0.38;;;12.90;99.90;;;;;;7390987;19;20166;-78
2024/01/26 12:11:36;;;;;;;0.43;0.40;;;13.00;99.90;;;;;;7368927;19;20269;-81
2024/01/26 12:14:01;;;;;;;0.40;0.40;;;13.00;99.90;;;;;;7371114;19;20643;-79
2024/01/26 12:16:30;;;;;;;0.30;0.30;;;13.00;99.90;;;;;;7370223;19;20207;-78
2024/01/26 12:18:56;;;;;;;0.40;0.40;;;13.00;99.90;;;;;;7371235;19;20193;-79
2024/01/26 12:21:21;;;;;;;0.35;0.35;;;13.00;99.90;;;;;;7389656;19;20717;-77
2024/01/26 12:23:50;;;;;;;1.23;1.10;;;13.20;99.90;;;;;;7369081;19;20245;-78
2024/01/26 12:26:16;;;;;;;0.50;0.50;;;13.00;99.90;;;;;;7366013;19;20182;-78
2024/01/26 12:28:42;;;;;;;0.38;0.30;;;13.00;99.90;;;;;;7369628;19;20182;-79
2024/01/26 12:31:08;;;;;;;0.20;0.20;;;13.00;99.90;;;;;;7365648;19;20488;-79
2024/01/26 12:33:37;;;;;;;0.40;0.40;;;13.00;99.90;;;;;;7393030;19;20149;-79
2024/01/26 12:36:09;;;;;;;0.47;0.47;;;13.10;99.90;;;;;;7368202;19;20198;-78
2024/01/26 12:38:35;;;;;;;0.43;0.43;;;13.20;99.90;;;;;;7368081;19;20230;-78
2024/01/26 12:41:01;;;;;;;0.63;0.60;;;13.20;99.90;;;;;;7367463;19;20585;-78
2024/01/26 12:43:27;;;;;;;0.28;0.28;;;13.20;99.90;;;;;;7367647;19;20181;-76
2024/01/26 12:45:53;;;;;;;0.40;0.40;;;13.10;99.90;;;;;;7366175;19;20139;-77